Time;durP1;ratioP1;P1;durP2;ratioP2;P2;SDS_P1;SDS_P2;PMS_P1;PMS_P2;Temp;Humidity;BMP_temperature;BMP_pressure;BME280_temperature;BME280_humidity;BME280_pressure;Samples;Min_cycle;Max_cycle;Signal;HPM_P1;HPM_P2
2021/07/30 00:02:15;;;;;;;;;;;16.00;62.80;;;;;;5051064;28;19927;-60
2021/07/30 00:04:40;;;;;;;;;;;15.90;62.90;;;;;;5051826;28;19917;-60
2021/07/30 00:07:06;;;;;;;;;;;15.90;63.10;;;;;;5032927;28;19917;-61
2021/07/30 00:09:31;;;;;;;;;;;15.90;63.30;;;;;;5051436;28;19923;-60
2021/07/30 00:11:57;;;;;;;;;;;15.90;63.50;;;;;;5051466;28;19921;-60
2021/07/30 00:14:24;;;;;;;;;;;15.80;63.70;;;;;;5032736;28;19917;-60
2021/07/30 00:16:49;;;;;;;;;;;15.80;63.80;;;;;;5051042;28;19920;-60
2021/07/30 00:19:15;;;;;;;;;;;15.80;63.90;;;;;;5033830;28;19917;-60
2021/07/30 00:21:40;;;;;;;;;;;15.80;64.00;;;;;;5050849;28;19924;-60
2021/07/30 00:24:08;;;;;;;;;;;15.80;64.20;;;;;;5050606;28;21296;-60
2021/07/30 00:26:33;;;;;;;;;;;15.70;64.20;;;;;;5050831;28;20537;-60
2021/07/30 00:28:59;;;;;;;;;;;15.70;64.30;;;;;;5051076;28;19917;-60
2021/07/30 00:31:24;;;;;;;;;;;15.70;64.50;;;;;;5033569;28;19917;-60
2021/07/30 00:33:50;;;;;;;;;;;15.60;64.60;;;;;;5051069;28;19921;-60
2021/07/30 00:36:15;;;;;;;;;;;15.70;64.80;;;;;;5033695;28;20371;-60
2021/07/30 00:38:41;;;;;;;;;;;15.60;64.80;;;;;;5050790;28;19923;-60
2021/07/30 00:41:06;;;;;;;;;;;15.60;64.90;;;;;;5050692;28;19920;-60
2021/07/30 00:43:32;;;;;;;;;;;15.60;65.10;;;;;;5051112;28;19921;-60
2021/07/30 00:45:58;;;;;;;;;;;15.60;65.30;;;;;;5050642;28;19940;-61
2021/07/30 00:48:24;;;;;;;;;;;15.50;65.30;;;;;;5033395;28;19974;-60
2021/07/30 00:50:51;;;;;;;;;;;15.50;65.40;;;;;;5033302;28;20292;-61
2021/07/30 00:53:17;;;;;;;;;;;15.50;65.50;;;;;;5032791;28;19921;-61
2021/07/30 00:55:43;;;;;;;;;;;15.50;65.70;;;;;;5033147;28;19916;-60
2021/07/30 00:58:10;;;;;;;;;;;15.40;65.80;;;;;;5050781;28;20295;-60
2021/07/30 01:00:35;;;;;;;;;;;15.40;65.80;;;;;;5050588;28;19917;-61
2021/07/30 01:03:02;;;;;;;;;;;15.40;66.10;;;;;;5050878;28;20387;-60
2021/07/30 01:05:28;;;;;;;;;;;15.40;66.20;;;;;;5050504;28;19928;-60
2021/07/30 01:07:54;;;;;;;;;;;15.40;66.20;;;;;;5032299;28;19917;-60
2021/07/30 01:10:20;;;;;;;;;;;15.40;66.30;;;;;;5033132;28;20434;-60
2021/07/30 01:12:46;;;;;;;;;;;15.30;66.40;;;;;;5050499;28;19917;-61
2021/07/30 01:15:11;;;;;;;;;;;15.30;66.60;;;;;;5032941;28;20012;-60
2021/07/30 01:17:37;;;;;;;;;;;15.30;66.70;;;;;;5050302;28;20031;-60
2021/07/30 01:20:03;;;;;;;;;;;15.30;66.70;;;;;;5050350;28;19923;-60
2021/07/30 01:22:34;;;;;;;;;;;15.20;66.70;;;;;;5050724;28;19967;-59
2021/07/30 01:25:00;;;;;;;;;;;15.20;66.90;;;;;;5050424;28;19916;-61
2021/07/30 01:27:25;;;;;;;;;;;15.20;66.90;;;;;;5036427;28;19917;-60
2021/07/30 01:29:51;;;;;;;;;;;15.20;67.00;;;;;;5036637;28;19924;-60
2021/07/30 01:32:16;;;;;;;;;;;15.20;67.20;;;;;;5053916;28;19921;-61
2021/07/30 01:34:42;;;;;;;;;;;15.20;67.20;;;;;;5054285;28;19978;-59
2021/07/30 01:37:11;;;;;;;;;;;15.10;67.40;;;;;;5053950;28;19917;-60
2021/07/30 01:39:37;;;;;;;;;;;15.20;67.60;;;;;;5053969;28;19917;-60
2021/07/30 01:42:03;;;;;;;;;;;15.10;67.50;;;;;;5019857;28;20281;-60
2021/07/30 01:44:29;;;;;;;;;;;15.20;67.60;;;;;;5053797;28;19917;-61
2021/07/30 01:46:55;;;;;;;;;;;15.10;67.50;;;;;;5035922;28;19974;-60
2021/07/30 01:49:20;;;;;;;;;;;15.10;67.70;;;;;;5054150;28;20003;-60
2021/07/30 01:51:46;;;;;;;;;;;15.00;67.70;;;;;;5053783;28;20199;-61
2021/07/30 01:54:14;;;;;;;;;;;15.10;67.80;;;;;;5036263;28;19916;-60
2021/07/30 01:56:43;;;;;;;;;;;15.10;67.90;;;;;;5053748;28;20419;-60
2021/07/30 01:59:09;;;;;;;;;;;15.00;68.00;;;;;;5053773;28;19921;-60
2021/07/30 02:01:34;;;;;;;;;;;15.00;68.10;;;;;;5036098;28;19917;-60
2021/07/30 02:04:00;;;;;;;;;;;15.00;68.10;;;;;;5035522;28;19971;-60
2021/07/30 02:06:25;;;;;;;;;;;15.00;68.20;;;;;;5053725;28;20335;-60
2021/07/30 02:08:51;;;;;;;;;;;15.00;68.20;;;;;;5035520;28;20351;-60
2021/07/30 02:11:16;;;;;;;;;;;15.00;68.30;;;;;;5053294;28;19927;-60
2021/07/30 02:16:26;;;;;;;;;;;14.90;68.40;;;;;;5053172;28;19923;-60
2021/07/30 02:18:52;;;;;;;;;;;14.90;68.40;;;;;;5053326;28;19917;-60
2021/07/30 02:21:17;;;;;;;;;;;14.80;68.40;;;;;;5035346;28;19913;-60
2021/07/30 02:23:46;;;;;;;;;;;14.80;68.50;;;;;;5035482;28;19974;-60
2021/07/30 02:26:12;;;;;;;;;;;14.80;68.50;;;;;;5035544;28;19924;-60
2021/07/30 02:28:37;;;;;;;;;;;14.80;68.70;;;;;;5052687;28;20012;-60
2021/07/30 02:31:03;;;;;;;;;;;14.80;68.80;;;;;;5035566;28;19917;-60
2021/07/30 02:33:29;;;;;;;;;;;14.70;68.80;;;;;;5053319;28;20003;-60
2021/07/30 02:35:54;;;;;;;;;;;14.70;69.00;;;;;;5052476;28;20372;-60
2021/07/30 02:38:20;;;;;;;;;;;14.70;69.10;;;;;;5052827;28;19916;-60
2021/07/30 02:40:45;;;;;;;;;;;14.70;69.20;;;;;;5052781;28;19924;-60
2021/07/30 02:43:11;;;;;;;;;;;14.70;69.20;;;;;;5035275;28;19952;-60
2021/07/30 02:45:37;;;;;;;;;;;14.70;69.30;;;;;;5035312;28;20284;-60
2021/07/30 02:48:02;;;;;;;;;;;14.70;69.30;;;;;;5034368;28;20410;-60
2021/07/30 02:50:28;;;;;;;;;;;14.60;69.30;;;;;;5052994;28;19924;-60
2021/07/30 02:52:53;;;;;;;;;;;14.60;69.30;;;;;;5052874;28;20400;-60
2021/07/30 02:55:19;;;;;;;;;;;14.60;69.30;;;;;;5034647;28;20339;-61
2021/07/30 02:57:45;;;;;;;;;;;14.60;69.50;;;;;;5052469;28;20381;-60
2021/07/30 03:00:10;;;;;;;;;;;14.60;69.50;;;;;;5052302;28;20288;-61
2021/07/30 03:02:36;;;;;;;;;;;14.60;69.60;;;;;;5034715;28;19921;-60
2021/07/30 03:05:02;;;;;;;;;;;14.50;69.50;;;;;;5052659;28;19948;-60
2021/07/30 03:07:27;;;;;;;;;;;14.50;69.60;;;;;;5033995;28;19917;-61
2021/07/30 03:09:53;;;;;;;;;;;14.50;69.60;;;;;;5034802;28;19917;-60
2021/07/30 03:12:18;;;;;;;;;;;14.50;69.80;;;;;;5052676;28;19924;-60
2021/07/30 03:14:44;;;;;;;;;;;14.50;69.90;;;;;;5052097;28;19917;-61
2021/07/30 03:17:09;;;;;;;;;;;14.40;69.90;;;;;;5034269;28;19924;-60
2021/07/30 03:19:35;;;;;;;;;;;14.40;70.00;;;;;;5052259;28;19940;-60
2021/07/30 03:22:00;;;;;;;;;;;14.40;70.00;;;;;;5033889;28;19917;-60
2021/07/30 03:24:26;;;;;;;;;;;14.40;70.10;;;;;;5034527;28;19924;-60
2021/07/30 03:26:51;;;;;;;;;;;14.40;70.20;;;;;;5034214;28;20349;-60
2021/07/30 03:29:17;;;;;;;;;;;14.40;70.20;;;;;;5051856;28;20547;-60
2021/07/30 03:31:47;;;;;;;;;;;14.40;70.30;;;;;;5052204;28;19917;-60
2021/07/30 03:34:16;;;;;;;;;;;14.40;70.30;;;;;;5033792;28;19928;-61
2021/07/30 03:36:41;;;;;;;;;;;14.30;70.30;;;;;;5051897;28;20389;-60
2021/07/30 03:39:08;;;;;;;;;;;14.30;70.30;;;;;;5051548;28;19931;-62
2021/07/30 03:41:34;;;;;;;;;;;14.40;70.40;;;;;;5052006;28;19923;-60
2021/07/30 03:43:59;;;;;;;;;;;14.30;70.50;;;;;;5051858;28;19928;-60
2021/07/30 03:46:25;;;;;;;;;;;14.40;70.60;;;;;;5051342;28;19917;-60
2021/07/30 03:48:50;;;;;;;;;;;14.40;71.20;;;;;;5050772;28;20355;-60
2021/07/30 03:51:16;;;;;;;;;;;14.40;70.80;;;;;;5034007;28;20338;-60
2021/07/30 03:53:41;;;;;;;;;;;14.40;70.90;;;;;;5051344;28;20349;-60
2021/07/30 03:56:13;;;;;;;;;;;14.40;70.90;;;;;;5051729;28;20408;-60
2021/07/30 03:58:45;;;;;;;;;;;14.40;70.90;;;;;;5050901;28;20369;-61
2021/07/30 04:01:11;;;;;;;;;;;14.40;70.90;;;;;;5051653;28;19917;-60
2021/07/30 04:03:37;;;;;;;;;;;14.40;70.90;;;;;;5051178;28;19925;-61
2021/07/30 04:06:03;;;;;;;;;;;14.40;70.90;;;;;;5033601;28;20007;-60
2021/07/30 04:08:29;;;;;;;;;;;14.40;71.00;;;;;;5051173;28;20363;-60
2021/07/30 04:10:55;;;;;;;;;;;14.40;71.10;;;;;;5051206;28;20280;-60
2021/07/30 04:13:20;;;;;;;;;;;14.40;71.10;;;;;;5051607;28;19917;-60
2021/07/30 04:15:46;;;;;;;;;;;14.40;71.10;;;;;;5051547;28;19939;-60
2021/07/30 04:18:11;;;;;;;;;;;14.40;71.20;;;;;;5032767;28;19928;-60
2021/07/30 04:20:40;;;;;;;;;;;14.50;71.20;;;;;;5017077;28;19924;-60
2021/07/30 04:23:06;;;;;;;;;;;14.50;71.30;;;;;;5050950;28;20013;-61
2021/07/30 04:25:31;;;;;;;;;;;14.50;71.30;;;;;;5051426;28;20297;-60
2021/07/30 04:27:57;;;;;;;;;;;14.50;71.30;;;;;;5050901;28;19956;-60
2021/07/30 04:30:23;;;;;;;;;;;14.50;71.30;;;;;;5050842;28;19939;-60
2021/07/30 04:32:49;;;;;;;;;;;14.60;71.40;;;;;;5051251;28;19970;-60
2021/07/30 04:35:14;;;;;;;;;;;14.60;71.40;;;;;;5051322;28;19925;-60
2021/07/30 04:37:40;;;;;;;;;;;14.60;71.40;;;;;;5050418;28;19955;-60
2021/07/30 04:40:06;;;;;;;;;;;14.60;71.40;;;;;;5051147;28;20292;-60
2021/07/30 04:42:31;;;;;;;;;;;14.60;71.30;;;;;;5051210;28;19995;-60
2021/07/30 04:44:57;;;;;;;;;;;14.60;71.30;;;;;;5032832;28;19975;-60
2021/07/30 04:47:23;;;;;;;;;;;14.70;71.40;;;;;;5032777;28;20452;-60
2021/07/30 04:49:48;;;;;;;;;;;14.70;71.40;;;;;;5033026;28;19943;-62
2021/07/30 04:52:14;;;;;;;;;;;14.70;71.40;;;;;;5051078;28;19982;-60
2021/07/30 04:54:39;;;;;;;;;;;14.70;71.40;;;;;;5051009;28;19917;-60
2021/07/30 04:57:07;;;;;;;;;;;14.80;71.40;;;;;;5032422;28;19924;-61
2021/07/30 04:59:32;;;;;;;;;;;14.80;71.40;;;;;;5052031;28;20373;-60
2021/07/30 05:01:58;;;;;;;;;;;14.90;71.40;;;;;;5054990;28;19917;-60
2021/07/30 05:04:24;;;;;;;;;;;14.90;71.30;;;;;;5036522;28;19960;-60
2021/07/30 05:06:50;;;;;;;;;;;15.00;71.40;;;;;;5036738;28;19917;-60
2021/07/30 05:09:16;;;;;;;;;;;15.00;71.40;;;;;;5054764;28;20319;-60
2021/07/30 05:11:41;;;;;;;;;;;15.10;71.30;;;;;;5054258;28;20365;-60
2021/07/30 05:14:07;;;;;;;;;;;15.20;71.30;;;;;;5037015;28;20645;-60
2021/07/30 05:16:33;;;;;;;;;;;15.30;71.20;;;;;;5036420;28;20419;-61
2021/07/30 05:18:58;;;;;;;;;;;15.30;71.00;;;;;;5036515;28;19917;-60
2021/07/30 05:21:24;;;;;;;;;;;15.40;70.90;;;;;;5036828;28;19923;-60
2021/07/30 05:23:49;;;;;;;;;;;15.50;70.80;;;;;;5036078;28;19921;-60
2021/07/30 05:26:15;;;;;;;;;;;15.60;70.70;;;;;;5036704;28;20016;-60
2021/07/30 05:28:40;;;;;;;;;;;15.70;70.40;;;;;;5054180;28;19917;-60
2021/07/30 05:31:06;;;;;;;;;;;15.80;70.20;;;;;;5054224;28;19916;-60
2021/07/30 05:33:32;;;;;;;;;;;15.90;70.30;;;;;;5054378;28;20369;-60
2021/07/30 05:35:58;;;;;;;;;;;16.00;70.30;;;;;;5053931;28;19923;-60
2021/07/30 05:38:23;;;;;;;;;;;16.10;70.20;;;;;;5054180;28;20070;-60
2021/07/30 05:40:49;;;;;;;;;;;16.20;69.80;;;;;;5036492;28;19962;-60
2021/07/30 05:43:15;;;;;;;;;;;16.40;69.60;;;;;;5053714;28;19917;-60
2021/07/30 05:45:40;;;;;;;;;;;16.50;69.40;;;;;;5054138;28;19928;-61
2021/07/30 05:48:07;;;;;;;;;;;16.60;69.50;;;;;;5053564;28;20313;-60
2021/07/30 05:50:33;;;;;;;;;;;16.90;69.70;;;;;;5053597;28;19917;-60
2021/07/30 05:52:58;;;;;;;;;;;17.10;69.40;;;;;;5053938;28;20343;-60
2021/07/30 05:55:24;;;;;;;;;;;17.50;69.40;;;;;;5053569;28;20008;-60
2021/07/30 05:57:49;;;;;;;;;;;18.40;71.10;;;;;;5019044;28;20024;-61
2021/07/30 06:00:15;;;;;;;;;;;19.80;74.00;;;;;;5053813;28;19967;-61
2021/07/30 06:02:40;;;;;;;;;;;21.20;71.40;;;;;;5035441;28;19921;-61
2021/07/30 06:05:06;;;;;;;;;;;22.40;68.90;;;;;;5053956;28;19929;-61
2021/07/30 06:07:32;;;;;;;;;;;23.40;66.50;;;;;;5035625;28;20297;-61
2021/07/30 06:09:57;;;;;;;;;;;24.20;63.20;;;;;;5053336;28;19925;-61
2021/07/30 06:12:23;;;;;;;;;;;25.00;62.10;;;;;;5035323;28;20361;-61
2021/07/30 06:14:48;;;;;;;;;;;25.50;59.40;;;;;;5053489;28;19920;-62
2021/07/30 06:17:14;;;;;;;;;;;26.00;57.70;;;;;;5035281;28;19917;-61
2021/07/30 06:19:40;;;;;;;;;;;26.60;56.50;;;;;;5019207;28;20297;-61
2021/07/30 06:22:05;;;;;;;;;;;27.10;53.60;;;;;;5053069;28;19919;-61
2021/07/30 06:24:31;;;;;;;;;;;27.40;53.30;;;;;;5053416;28;19917;-61
2021/07/30 06:26:56;;;;;;;;;;;28.10;52.90;;;;;;5035253;28;19913;-61
2021/07/30 06:29:22;;;;;;;;;;;28.80;49.80;;;;;;5053113;28;19928;-61
2021/07/30 06:31:47;;;;;;;;;;;28.90;48.00;;;;;;5053333;28;19924;-61
2021/07/30 06:34:13;;;;;;;;;;;29.20;47.40;;;;;;5053310;28;19921;-61
2021/07/30 06:36:38;;;;;;;;;;;29.60;47.00;;;;;;5052742;28;19920;-61
2021/07/30 06:39:04;;;;;;;;;;;30.20;45.90;;;;;;5035391;28;19916;-61
2021/07/30 06:41:30;;;;;;;;;;;30.60;44.80;;;;;;5052616;28;19917;-62
2021/07/30 06:43:56;;;;;;;;;;;31.30;44.10;;;;;;5053007;28;20423;-61
2021/07/30 06:46:21;;;;;;;;;;;31.90;42.80;;;;;;5052955;28;20007;-69
2021/07/30 06:48:47;;;;;;;;;;;32.00;40.50;;;;;;5035097;28;19931;-63
2021/07/30 06:51:13;;;;;;;;;;;31.80;38.60;;;;;;5053012;28;19920;-61
2021/07/30 06:53:39;;;;;;;;;;;31.30;39.10;;;;;;5052901;28;19917;-61
2021/07/30 06:56:14;;;;;;;;;;;31.40;39.80;;;;;;5017802;28;19917;-61
2021/07/30 06:58:40;;;;;;;;;;;31.70;38.40;;;;;;5052524;28;20359;-61
2021/07/30 07:01:06;;;;;;;;;;;32.00;39.60;;;;;;5034533;28;19913;-61
2021/07/30 07:03:31;;;;;;;;;;;32.80;39.20;;;;;;5052548;28;19921;-61
2021/07/30 07:05:57;;;;;;;;;;;33.40;38.10;;;;;;5052169;28;20356;-64
2021/07/30 07:08:23;;;;;;;;;;;33.80;36.50;;;;;;5052274;28;19921;-61
2021/07/30 07:10:48;;;;;;;;;;;33.70;35.00;;;;;;5052443;28;19923;-59
2021/07/30 07:13:16;;;;;;;;;;;33.80;35.60;;;;;;5052386;28;20393;-59
2021/07/30 07:15:45;;;;;;;;;;;34.40;36.10;;;;;;5018042;28;19917;-59
2021/07/30 07:18:11;;;;;;;;;;;35.00;35.00;;;;;;5051997;28;19924;-59
2021/07/30 07:20:36;;;;;;;;;;;35.40;33.40;;;;;;5051971;28;20006;-59
2021/07/30 07:23:02;;;;;;;;;;;35.50;32.50;;;;;;5033557;28;20072;-59
2021/07/30 07:25:28;;;;;;;;;;;35.40;32.90;;;;;;5051867;28;20323;-59
2021/07/30 07:27:53;;;;;;;;;;;35.70;33.30;;;;;;5051849;28;19913;-59
2021/07/30 07:30:19;;;;;;;;;;;36.30;32.70;;;;;;5034230;28;20424;-59
2021/07/30 07:32:45;;;;;;;;;;;36.70;31.90;;;;;;5051407;28;19956;-61
2021/07/30 07:35:10;;;;;;;;;;;37.00;31.20;;;;;;5034437;28;19924;-62
2021/07/30 07:37:36;;;;;;;;;;;37.30;30.90;;;;;;5051610;28;19923;-59
2021/07/30 07:40:02;;;;;;;;;;;37.70;31.30;;;;;;5051493;28;19963;-60
2021/07/30 07:42:27;;;;;;;;;;;38.40;31.00;;;;;;5051728;28;19917;-59
2021/07/30 07:44:53;;;;;;;;;;;39.20;30.50;;;;;;5033807;28;19971;-59
2021/07/30 07:47:18;;;;;;;;;;;39.70;29.70;;;;;;5032910;28;20003;-59
2021/07/30 07:49:44;;;;;;;;;;;40.30;29.20;;;;;;5034226;28;19939;-59
2021/07/30 07:52:10;;;;;;;;;;;40.30;28.40;;;;;;5051400;28;19917;-62
2021/07/30 07:54:35;;;;;;;;;;;40.10;28.00;;;;;;5033877;28;19924;-59
2021/07/30 07:57:03;;;;;;;;;;;39.70;28.10;;;;;;5051298;28;20265;-60
2021/07/30 07:59:29;;;;;;;;;;;39.70;28.40;;;;;;5051101;28;20393;-59
2021/07/30 08:01:54;;;;;;;;;;;40.30;28.20;;;;;;5051626;28;19924;-59
2021/07/30 08:04:20;;;;;;;;;;;40.80;27.80;;;;;;5051595;28;20467;-59
2021/07/30 08:06:45;;;;;;;;;;;41.10;27.60;;;;;;5050873;28;20357;-59
2021/07/30 08:09:11;;;;;;;;;;;41.70;27.60;;;;;;5051451;28;20369;-59
2021/07/30 08:11:36;;;;;;;;;;;42.10;27.10;;;;;;5033500;28;19917;-59
2021/07/30 08:14:02;;;;;;;;;;;42.40;26.60;;;;;;5051093;28;19924;-59
2021/07/30 08:16:27;;;;;;;;;;;42.50;26.20;;;;;;5051336;28;19923;-59
2021/07/30 08:18:53;;;;;;;;;;;42.50;25.60;;;;;;5050686;28;20003;-60
2021/07/30 08:21:19;;;;;;;;;;;42.20;26.00;;;;;;5033675;28;19917;-59
2021/07/30 08:23:45;;;;;;;;;;;42.50;26.30;;;;;;5051227;28;19921;-60
2021/07/30 08:26:10;;;;;;;;;;;43.10;25.90;;;;;;5050914;28;20322;-59
2021/07/30 08:28:36;;;;;;;;;;;42.90;25.30;;;;;;5050881;28;19968;-59
2021/07/30 08:31:01;;;;;;;;;;;42.70;25.20;;;;;;5051411;28;19916;-59
2021/07/30 08:33:27;;;;;;;;;;;43.00;25.30;;;;;;5032969;28;19921;-60
2021/07/30 08:35:53;;;;;;;;;;;43.20;25.10;;;;;;5051016;28;19970;-59
2021/07/30 08:38:18;;;;;;;;;;;43.10;24.40;;;;;;5050188;28;19917;-60
2021/07/30 08:40:44;;;;;;;;;;;42.40;25.00;;;;;;5051183;28;20000;-59
2021/07/30 08:43:16;;;;;;;;;;;42.10;25.20;;;;;;5016832;28;19986;-59
2021/07/30 08:45:49;;;;;;;;;;;42.60;25.30;;;;;;5050468;28;19943;-60
2021/07/30 08:48:15;;;;;;;;;;;42.90;24.80;;;;;;5050575;28;19921;-60
2021/07/30 08:50:41;;;;;;;;;;;42.90;24.80;;;;;;5050474;28;19967;-60
2021/07/30 08:53:08;;;;;;;;;;;43.30;25.00;;;;;;5051113;28;19913;-59
2021/07/30 08:55:34;;;;;;;;;;;44.00;24.80;;;;;;5050976;28;20001;-60
2021/07/30 08:57:59;;;;;;;;;;;44.40;24.40;;;;;;5015963;28;20355;-60
2021/07/30 09:00:25;;;;;;;;;;;44.50;24.20;;;;;;5051045;28;20011;-60
2021/07/30 09:02:53;;;;;;;;;;;44.80;24.10;;;;;;5050787;28;19920;-59
2021/07/30 09:05:25;;;;;;;;;;;44.40;23.60;;;;;;5050423;28;19917;-59
2021/07/30 09:07:50;;;;;;;;;;;44.20;23.90;;;;;;5050630;28;20337;-59
2021/07/30 09:10:32;;;;;;;;;;;44.50;23.40;;;;;;5050477;28;19920;-60
2021/07/30 09:13:16;;;;;;;;;;;44.50;23.80;;;;;;5032859;28;19917;-60
2021/07/30 09:15:43;;;;;;;;;;;45.10;23.70;;;;;;5050616;28;19916;-59
2021/07/30 09:18:28;;;;;;;;;;;45.70;23.60;;;;;;5032741;28;19996;-60
2021/07/30 09:20:55;;;;;;;;;;;45.90;23.10;;;;;;5049669;28;19939;-60
2021/07/30 09:23:20;;;;;;;;;;;46.00;23.30;;;;;;5050678;28;19924;-60
2021/07/30 09:25:46;;;;;;;;;;;46.70;23.30;;;;;;5050385;28;19923;-60
2021/07/30 09:28:11;;;;;;;;;;;47.30;22.80;;;;;;5050265;28;19924;-60
2021/07/30 09:30:37;;;;;;;;;;;46.60;22.10;;;;;;5032963;28;19965;-59
2021/07/30 09:33:03;;;;;;;;;;;45.60;22.60;;;;;;5049988;28;19920;-60
2021/07/30 09:35:29;;;;;;;;;;;44.70;22.40;;;;;;5050695;28;19948;-59
2021/07/30 09:38:14;;;;;;;;;;;44.30;22.90;;;;;;5032645;28;19975;-59
2021/07/30 09:40:39;;;;;;;;;;;44.70;23.20;;;;;;5032560;28;19917;-60
2021/07/30 09:43:20;;;;;;;;;;;45.50;22.80;;;;;;5050611;28;19928;-60
2021/07/30 09:45:46;;;;;;;;;;;45.30;22.50;;;;;;5050360;28;19924;-59
2021/07/30 09:48:11;;;;;;;;;;;45.30;22.40;;;;;;5035872;28;19925;-59
2021/07/30 09:50:37;;;;;;;;;;;45.00;22.00;;;;;;5053649;28;19978;-59
2021/07/30 09:53:04;;;;;;;;;;;44.50;22.50;;;;;;5053991;28;19964;-59
2021/07/30 09:55:30;;;;;;;;;;;44.70;22.80;;;;;;5054056;28;20391;-60
2021/07/30 09:57:56;;;;;;;;;;;45.40;22.90;;;;;;5035296;28;20305;-59
2021/07/30 10:00:22;;;;;;;;;;;46.00;22.50;;;;;;5054019;28;20293;-60
2021/07/30 10:02:48;;;;;;;;;;;46.50;22.10;;;;;;5053418;28;19924;-60
2021/07/30 10:05:14;;;;;;;;;;;45.20;21.60;;;;;;5053854;28;20262;-59
2021/07/30 10:07:41;;;;;;;;;;;44.00;22.30;;;;;;5053382;28;19940;-59
2021/07/30 10:10:14;;;;;;;;;;;43.80;22.40;;;;;;5053290;28;19928;-60
2021/07/30 10:12:51;;;;;;;;;;;42.90;22.80;;;;;;5035887;28;19925;-59
2021/07/30 10:15:17;;;;;;;;;;;41.60;22.60;;;;;;5053231;28;19921;-60
2021/07/30 10:17:47;;;;;;;;;;;40.50;23.30;;;;;;5053385;28;20341;-59
2021/07/30 10:20:13;;;;;;;;;;;39.50;23.70;;;;;;5053181;28;19930;-63
2021/07/30 10:22:42;;;;;;;;;;;38.30;24.10;;;;;;5053285;28;20372;-59
2021/07/30 10:25:08;;;;;;;;;;;39.80;25.30;;;;;;5053698;28;19921;-60
2021/07/30 10:27:38;;;;;;;;;;;41.80;24.30;;;;;;5052519;28;19917;-59
2021/07/30 10:30:11;;;;;;;;;;;43.30;23.70;;;;;;5053415;28;19916;-61
2021/07/30 10:32:43;;;;;;;;;;;43.70;23.00;;;;;;5052818;28;19917;-60
2021/07/30 10:35:09;;;;;;;;;;;42.90;22.20;;;;;;5035367;28;19990;-60
2021/07/30 10:37:36;;;;;;;;;;;41.40;22.90;;;;;;5053060;28;20377;-59
2021/07/30 10:40:15;;;;;;;;;;;40.30;23.40;;;;;;5034887;28;19924;-59
2021/07/30 10:43:00;;;;;;;;;;;39.30;23.20;;;;;;5053056;28;19964;-59
2021/07/30 10:45:25;;;;;;;;;;;37.40;23.40;;;;;;5052879;28;19917;-59
2021/07/30 10:48:10;;;;;;;;;;;37.20;25.00;;;;;;5018236;28;19928;-59
2021/07/30 10:50:56;;;;;;;;;;;38.10;25.10;;;;;;5034642;28;19916;-59
2021/07/30 10:53:34;;;;;;;;;;;39.10;24.90;;;;;;5052497;28;19917;-60
2021/07/30 10:56:00;;;;;;;;;;;39.30;24.70;;;;;;5034982;28;19923;-60
2021/07/30 10:58:41;;;;;;;;;;;41.00;24.80;;;;;;5052479;28;19996;-59
2021/07/30 11:01:17;;;;;;;;;;;42.70;24.10;;;;;;5034681;28;20369;-59
2021/07/30 11:03:51;;;;;;;;;;;44.00;23.50;;;;;;5034267;28;20392;-65
2021/07/30 11:06:17;;;;;;;;;;;45.50;23.20;;;;;;5052617;28;19923;-60
2021/07/30 11:09:04;;;;;;;;;;;46.80;22.50;;;;;;5034377;28;19913;-60
2021/07/30 11:11:40;;;;;;;;;;;47.30;21.70;;;;;;5034422;28;20011;-59
2021/07/30 11:14:12;;;;;;;;;;;47.30;21.60;;;;;;5034513;28;19974;-60
2021/07/30 11:16:38;;;;;;;;;;;47.00;21.30;;;;;;5034378;28;20178;-60
2021/07/30 11:19:04;;;;;;;;;;;46.90;21.40;;;;;;5034391;28;20250;-60
2021/07/30 11:21:30;;;;;;;;;;;46.50;21.10;;;;;;5051954;28;19917;-60
2021/07/30 11:23:59;;;;;;;;;;;45.30;21.00;;;;;;5052093;28;19921;-59
2021/07/30 11:26:25;;;;;;;;;;;44.00;21.30;;;;;;5052332;28;19917;-59
2021/07/30 11:28:51;;;;;;;;;;;43.10;21.70;;;;;;5051466;28;19996;-59
2021/07/30 11:31:17;;;;;;;;;;;43.00;22.10;;;;;;5051885;28;19939;-59
2021/07/30 11:33:53;;;;;;;;;;;43.10;22.20;;;;;;5017619;28;19912;-60
2021/07/30 11:36:18;;;;;;;;;;;42.50;21.80;;;;;;5052221;28;20323;-59
2021/07/30 11:38:50;;;;;;;;;;;41.20;22.10;;;;;;5051625;28;19953;-59
2021/07/30 11:41:16;;;;;;;;;;;40.20;22.60;;;;;;5034007;28;20000;-59
2021/07/30 11:43:58;;;;;;;;;;;40.00;23.00;;;;;;5051766;28;20011;-60
2021/07/30 11:46:24;;;;;;;;;;;40.00;23.10;;;;;;5025822;28;19920;-59
2021/07/30 11:48:50;;;;;;;;;;;40.30;23.00;;;;;;5051371;28;20372;-59
2021/07/30 11:51:16;;;;;;;;;;;39.70;22.80;;;;;;5033533;28;19927;-59
2021/07/30 11:53:42;;;;;;;;;;;38.80;23.10;;;;;;5051662;28;20297;-59
2021/07/30 11:56:07;;;;;;;;;;;37.70;23.10;;;;;;5051570;28;19925;-59
2021/07/30 11:58:33;;;;;;;;;;;36.50;23.90;;;;;;5050762;28;20258;-60
2021/07/30 12:01:09;;;;;;;;;;;36.40;24.20;;;;;;5033775;28;20339;-59
2021/07/30 12:03:35;;;;;;;;;;;36.80;24.50;;;;;;5033263;28;20301;-59
2021/07/30 12:06:01;;;;;;;;;;;36.80;24.20;;;;;;5051521;28;19913;-59
2021/07/30 12:08:26;;;;;;;;;;;36.20;24.50;;;;;;5051019;28;20387;-59
2021/07/30 12:10:52;;;;;;;;;;;35.30;24.60;;;;;;5050613;28;19924;-59
2021/07/30 12:13:22;;;;;;;;;;;34.30;25.00;;;;;;5051330;28;20339;-61
2021/07/30 12:15:48;;;;;;;;;;;33.10;25.50;;;;;;5051138;28;20003;-60
2021/07/30 12:18:14;;;;;;;;;;;32.30;26.20;;;;;;5051042;28;20004;-59
2021/07/30 12:20:40;;;;;;;;;;;31.70;26.50;;;;;;5033497;28;19990;-59
2021/07/30 12:23:11;;;;;;;;;;;31.30;27.20;;;;;;5032846;28;19981;-59
2021/07/30 12:25:38;;;;;;;;;;;31.30;27.60;;;;;;5051263;28;19960;-59
2021/07/30 12:28:14;;;;;;;;;;;31.80;28.10;;;;;;5050880;28;20396;-59
2021/07/30 12:30:40;;;;;;;;;;;32.20;27.50;;;;;;5050889;28;20266;-59
2021/07/30 12:33:22;;;;;;;;;;;32.00;27.00;;;;;;5051385;28;19917;-59
2021/07/30 12:35:48;;;;;;;;;;;31.70;27.30;;;;;;5033121;28;19944;-59
2021/07/30 12:38:15;;;;;;;;;;;31.20;27.60;;;;;;5050803;28;19913;-59
2021/07/30 12:40:41;;;;;;;;;;;31.00;27.50;;;;;;5050880;28;19917;-62
2021/07/30 12:43:14;;;;;;;;;;;30.70;27.90;;;;;;5051011;28;20007;-59
2021/07/30 12:45:49;;;;;;;;;;;30.30;28.10;;;;;;5051098;28;19917;-59
2021/07/30 12:48:18;;;;;;;;;;;30.30;28.50;;;;;;5050924;28;20377;-67
2021/07/30 12:50:43;;;;;;;;;;;30.50;28.50;;;;;;5033336;28;19917;-67
2021/07/30 12:53:10;;;;;;;;;;;31.10;29.20;;;;;;5032740;28;19917;-67
2021/07/30 12:55:54;;;;;;;;;;;31.80;29.00;;;;;;5051007;28;19924;-67
2021/07/30 12:58:23;;;;;;;;;;;32.20;28.50;;;;;;5032340;28;19920;-68
2021/07/30 13:00:50;;;;;;;;;;;31.80;27.80;;;;;;5050828;28;19988;-69
2021/07/30 13:03:17;;;;;;;;;;;30.90;27.80;;;;;;5033129;28;19944;-69
2021/07/30 13:05:45;;;;;;;;;;;30.20;28.50;;;;;;5050535;28;20365;-69
2021/07/30 13:08:11;;;;;;;;;;;30.00;28.80;;;;;;5050634;28;19916;-70
2021/07/30 13:10:36;;;;;;;;;;;30.10;29.10;;;;;;5050464;28;19916;-68
2021/07/30 13:13:02;;;;;;;;;;;30.10;28.80;;;;;;5050917;28;19917;-70
2021/07/30 13:15:28;;;;;;;;;;;29.90;29.20;;;;;;5033200;28;20338;-69
2021/07/30 13:17:54;;;;;;;;;;;29.60;29.40;;;;;;5015757;28;19960;-69
2021/07/30 13:20:20;;;;;;;;;;;29.10;29.40;;;;;;5050935;28;19923;-68
2021/07/30 13:22:45;;;;;;;;;;;28.50;29.80;;;;;;5019410;28;20360;-68
2021/07/30 13:25:11;;;;;;;;;;;28.10;30.70;;;;;;5054275;28;20333;-68
2021/07/30 13:27:37;;;;;;;;;;;27.90;30.50;;;;;;5054284;28;19921;-69
2021/07/30 13:30:03;;;;;;;;;;;27.70;30.60;;;;;;5053831;28;19948;-68
2021/07/30 13:32:28;;;;;;;;;;;27.40;30.80;;;;;;5036586;28;20434;-68
2021/07/30 13:34:54;;;;;;;;;;;27.20;31.30;;;;;;5036523;28;19921;-68
2021/07/30 13:37:19;;;;;;;;;;;27.10;31.60;;;;;;5035427;28;19917;-68
2021/07/30 13:39:45;;;;;;;;;;;27.00;31.70;;;;;;5020014;28;20083;-69
2021/07/30 13:42:10;;;;;;;;;;;26.90;31.60;;;;;;5036389;28;19917;-68
2021/07/30 13:44:36;;;;;;;;;;;26.80;31.80;;;;;;5053773;28;19952;-68
2021/07/30 13:47:02;;;;;;;;;;;26.70;31.80;;;;;;5053757;28;19999;-68
2021/07/30 13:49:27;;;;;;;;;;;26.70;31.60;;;;;;5035896;28;19920;-68
2021/07/30 13:51:53;;;;;;;;;;;26.60;31.90;;;;;;5036172;28;19916;-68
2021/07/30 13:54:18;;;;;;;;;;;26.60;32.20;;;;;;5054205;28;19924;-68
2021/07/30 13:56:44;;;;;;;;;;;26.70;32.20;;;;;;5053279;28;20042;-62
2021/07/30 13:59:09;;;;;;;;;;;26.70;32.00;;;;;;5053908;28;19917;-62
2021/07/30 14:01:35;;;;;;;;;;;26.70;31.60;;;;;;5035996;28;19924;-62
2021/07/30 14:04:00;;;;;;;;;;;26.50;31.50;;;;;;5053372;28;20039;-62
2021/07/30 14:06:26;;;;;;;;;;;26.30;31.60;;;;;;5053741;28;20346;-65
2021/07/30 14:08:51;;;;;;;;;;;26.20;31.70;;;;;;5053138;28;20430;-64
2021/07/30 14:11:17;;;;;;;;;;;26.00;31.70;;;;;;5053748;28;19955;-64
2021/07/30 14:13:42;;;;;;;;;;;26.00;31.90;;;;;;5035827;28;20003;-65
2021/07/30 14:16:13;;;;;;;;;;;25.90;32.10;;;;;;5035061;28;19966;-64
2021/07/30 14:18:39;;;;;;;;;;;25.90;32.20;;;;;;5035453;28;19923;-64